createdAt,value
2019-03-23T00:01:52.555Z,26.40
2019-03-23T00:04:25.307Z,26.50
2019-03-23T00:06:54.292Z,26.50
2019-03-23T00:09:24.640Z,26.60
2019-03-23T00:11:54.800Z,26.70
2019-03-23T00:14:25.079Z,26.70
2019-03-23T00:16:55.066Z,26.80
2019-03-23T00:19:25.107Z,26.90
2019-03-23T00:21:55.100Z,26.90
2019-03-23T00:24:25.339Z,26.90
2019-03-23T00:26:55.406Z,27.00
2019-03-23T00:29:25.480Z,27.00
2019-03-23T00:31:55.586Z,27.10
2019-03-23T00:34:25.760Z,27.10
2019-03-23T00:36:55.745Z,27.20
2019-03-23T00:39:25.928Z,27.30
2019-03-23T00:41:56.012Z,27.40
2019-03-23T00:44:26.144Z,27.50
2019-03-23T00:46:56.247Z,27.70
2019-03-23T00:49:26.494Z,27.80
2019-03-23T00:51:56.558Z,27.90
2019-03-23T00:54:26.763Z,28.10
2019-03-23T00:56:56.866Z,28.30
2019-03-23T00:59:27.018Z,28.30
2019-03-23T01:01:57.144Z,28.50
2019-03-23T01:04:27.642Z,28.60
2019-03-23T01:06:57.883Z,28.70
2019-03-23T01:09:27.866Z,28.80
2019-03-23T01:11:58.047Z,29.00
2019-03-23T01:14:28.286Z,29.00
2019-03-23T01:16:58.314Z,29.10
2019-03-23T01:19:28.357Z,29.20
2019-03-23T01:21:58.719Z,29.30
2019-03-23T01:24:28.794Z,29.50
2019-03-23T01:27:02.251Z,29.60
2019-03-23T01:29:32.395Z,29.70
2019-03-23T01:32:02.422Z,29.80
2019-03-23T01:34:32.770Z,29.90
2019-03-23T01:37:03.169Z,30.00
2019-03-23T01:39:33.283Z,30.10
2019-03-23T01:42:03.449Z,30.10
2019-03-23T01:44:33.763Z,30.20
2019-03-23T01:47:04.407Z,30.30
2019-03-23T01:49:34.761Z,30.40
2019-03-23T01:52:04.936Z,30.50
2019-03-23T01:54:36.053Z,30.60
2019-03-23T01:57:06.751Z,30.70
2019-03-23T01:59:36.883Z,30.90
2019-03-23T02:02:06.936Z,31.00
2019-03-23T02:04:38.890Z,31.10
2019-03-23T02:07:13.809Z,31.10
2019-03-23T02:09:40.383Z,31.20
2019-03-23T02:12:10.527Z,31.40
2019-03-23T02:14:40.425Z,31.40
2019-03-23T02:17:10.666Z,31.50
2019-03-23T02:19:40.700Z,31.60
2019-03-23T02:22:10.839Z,31.70
2019-03-23T02:24:41.140Z,31.80
2019-03-23T02:27:11.417Z,31.90
2019-03-23T02:29:41.636Z,31.90
2019-03-23T02:32:12.513Z,32.00
2019-03-23T02:34:42.615Z,32.10
2019-03-23T02:37:13.016Z,32.20
2019-03-23T02:39:43.022Z,32.30
2019-03-23T02:42:13.287Z,32.50
2019-03-23T02:44:43.437Z,32.50
2019-03-23T02:47:13.441Z,32.60
2019-03-23T02:49:43.968Z,32.70
2019-03-23T02:52:14.117Z,32.70
2019-03-23T02:54:44.544Z,32.80
2019-03-23T02:57:14.738Z,32.90
2019-03-23T02:59:44.922Z,33.00
2019-03-23T03:02:15.229Z,33.10
2019-03-23T03:04:45.452Z,33.20
2019-03-23T03:07:15.605Z,33.30
2019-03-23T03:09:45.721Z,33.40
2019-03-23T03:12:16.056Z,33.50
2019-03-23T03:14:46.159Z,33.60
2019-03-23T03:17:16.103Z,33.70
2019-03-23T03:19:46.278Z,33.80
2019-03-23T03:22:16.376Z,33.80
2019-03-23T03:24:46.363Z,33.90
2019-03-23T03:27:16.705Z,34.00
2019-03-23T03:29:46.640Z,34.10
2019-03-23T03:32:17.059Z,34.20
2019-03-23T03:34:47.167Z,34.30
2019-03-23T03:37:17.324Z,34.30
2019-03-23T03:39:47.505Z,34.40
2019-03-23T03:42:17.666Z,34.40
2019-03-23T03:44:47.783Z,34.50
2019-03-23T03:47:18.616Z,34.60
2019-03-23T03:49:48.781Z,34.70
2019-03-23T03:52:19.984Z,34.70
2019-03-23T03:54:50.138Z,34.80
2019-03-23T03:57:20.527Z,34.80
2019-03-23T03:59:50.941Z,34.90
2019-03-23T04:02:20.970Z,34.90
2019-03-23T04:04:51.162Z,35.00
2019-03-23T04:07:21.132Z,35.00
2019-03-23T04:09:51.436Z,35.00
2019-03-23T04:12:21.875Z,35.10
2019-03-23T04:14:52.067Z,35.10
2019-03-23T04:17:22.182Z,35.20
2019-03-23T04:19:52.652Z,35.30
2019-03-23T04:22:22.637Z,35.40
2019-03-23T04:24:52.920Z,35.40
2019-03-23T04:27:23.189Z,35.50
2019-03-23T04:29:53.537Z,35.50
2019-03-23T04:32:23.779Z,35.60
2019-03-23T04:34:53.889Z,35.60
2019-03-23T04:37:23.988Z,35.60
2019-03-23T04:39:54.306Z,35.60
2019-03-23T04:42:24.567Z,35.70
2019-03-23T04:44:54.621Z,35.70
2019-03-23T04:47:24.773Z,35.90
2019-03-23T04:49:55.075Z,35.90
2019-03-23T04:52:25.192Z,36.00
2019-03-23T04:54:55.315Z,36.00
2019-03-23T04:57:25.459Z,36.00
2019-03-23T04:59:55.587Z,36.10
2019-03-23T05:02:26.176Z,36.10
2019-03-23T05:04:56.255Z,36.10
2019-03-23T05:07:26.920Z,36.10
2019-03-23T05:09:57.568Z,36.10
2019-03-23T05:12:28.814Z,36.10
2019-03-23T05:14:59.018Z,36.20
2019-03-23T05:17:28.839Z,36.20
2019-03-23T05:19:59.018Z,36.20
2019-03-23T05:22:30.153Z,36.20
2019-03-23T05:25:00.337Z,36.20
2019-03-23T05:27:30.327Z,36.20
2019-03-23T05:30:00.496Z,36.30
2019-03-23T05:32:30.732Z,36.40
2019-03-23T05:35:00.863Z,36.40
2019-03-23T05:37:30.990Z,36.50
2019-03-23T05:40:01.058Z,36.60
2019-03-23T05:42:31.202Z,36.70
2019-03-23T05:45:01.393Z,36.70
2019-03-23T05:47:31.550Z,36.70
2019-03-23T05:50:01.797Z,36.80
2019-03-23T05:52:31.909Z,36.80
2019-03-23T05:55:02.182Z,36.90
2019-03-23T05:57:32.373Z,36.90
2019-03-23T06:00:02.505Z,37.00
2019-03-23T06:02:32.624Z,37.00
2019-03-23T06:05:02.646Z,37.00
2019-03-23T06:07:32.830Z,37.00
2019-03-23T06:10:02.802Z,37.10
2019-03-23T06:12:33.000Z,37.10
2019-03-23T06:15:03.141Z,37.10
2019-03-23T06:17:33.136Z,37.20
2019-03-23T06:20:04.733Z,37.20
2019-03-23T06:22:34.925Z,37.20
2019-03-23T06:25:06.710Z,37.20
2019-03-23T06:27:36.822Z,37.20
2019-03-23T06:30:09.320Z,37.20
2019-03-23T06:32:39.601Z,37.30
2019-03-23T06:35:10.090Z,37.20
2019-03-23T06:37:40.263Z,37.30
2019-03-23T06:40:11.594Z,37.30
2019-03-23T06:42:41.973Z,37.30
2019-03-23T06:45:12.460Z,37.40
2019-03-23T06:47:42.610Z,37.40
2019-03-23T06:50:20.185Z,37.40
2019-03-23T06:52:50.406Z,37.40
2019-03-23T06:55:20.581Z,37.40
2019-03-23T06:57:50.735Z,37.40
2019-03-23T07:00:20.852Z,37.40
2019-03-23T07:02:51.871Z,37.40
2019-03-23T07:05:22.189Z,37.40
2019-03-23T07:07:52.511Z,37.40
2019-03-23T07:10:22.538Z,37.40
2019-03-23T07:12:52.676Z,37.40
2019-03-23T07:15:22.831Z,37.40
2019-03-23T07:17:53.207Z,37.50
2019-03-23T07:20:23.371Z,37.60
2019-03-23T07:22:54.930Z,37.60
2019-03-23T07:25:25.221Z,37.60
2019-03-23T07:27:55.269Z,37.70
2019-03-23T07:30:25.696Z,37.70
2019-03-23T07:32:55.905Z,37.70
2019-03-23T07:35:26.260Z,37.70
2019-03-23T07:39:05.248Z,37.70
2019-03-23T07:41:35.729Z,37.70
2019-03-23T07:44:06.239Z,37.70
2019-03-23T07:46:36.289Z,37.70
2019-03-23T07:49:06.710Z,37.60
2019-03-23T07:51:37.020Z,37.60
2019-03-23T07:54:07.351Z,37.70
2019-03-23T07:56:37.587Z,37.70
2019-03-23T07:59:07.686Z,37.60
2019-03-23T08:01:37.701Z,37.60
2019-03-23T08:04:07.920Z,37.70
2019-03-23T08:06:38.301Z,37.70
2019-03-23T08:09:08.414Z,37.80
2019-03-23T08:11:38.529Z,37.80
2019-03-23T08:14:08.533Z,38.00
2019-03-23T08:16:38.721Z,38.10
2019-03-23T08:19:08.980Z,38.10
2019-03-23T08:21:38.992Z,38.20
2019-03-23T08:24:09.112Z,38.30
2019-03-23T08:26:39.614Z,38.30
2019-03-23T08:29:09.680Z,38.40
2019-03-23T08:31:39.660Z,38.40
2019-03-23T08:34:09.990Z,38.30
2019-03-23T08:36:40.010Z,38.30
2019-03-23T08:39:10.132Z,38.40
2019-03-23T08:42:18.031Z,38.40
2019-03-23T08:44:48.161Z,38.30
2019-03-23T08:47:18.551Z,38.30
2019-03-23T08:49:48.941Z,38.30
2019-03-23T08:52:19.309Z,38.30
2019-03-23T08:54:49.510Z,38.30
2019-03-23T08:58:30.545Z,38.30
2019-03-23T09:01:01.221Z,38.30
2019-03-23T09:03:31.386Z,38.30
2019-03-23T09:06:01.521Z,38.30
2019-03-23T09:08:31.891Z,38.20
2019-03-23T09:11:02.083Z,38.20
2019-03-23T09:13:40.291Z,38.20
2019-03-23T09:16:03.695Z,38.20
2019-03-23T09:18:34.857Z,38.20
2019-03-23T09:21:04.881Z,38.10
2019-03-23T09:23:35.152Z,38.10
2019-03-23T09:26:05.581Z,38.10
2019-03-23T09:28:35.809Z,38.10
2019-03-23T09:31:06.041Z,38.10
2019-03-23T09:33:35.982Z,38.10
2019-03-23T09:36:06.181Z,38.10
2019-03-23T09:38:36.423Z,38.10
2019-03-23T09:41:08.662Z,38.10
2019-03-23T09:43:38.768Z,38.10
2019-03-23T09:46:09.096Z,38.10
2019-03-23T09:48:39.380Z,38.00
2019-03-23T09:51:09.556Z,38.00
2019-03-23T09:53:39.680Z,37.90
2019-03-23T09:56:09.907Z,37.90
2019-03-23T09:58:40.489Z,37.90
2019-03-23T10:01:10.762Z,37.90
2019-03-23T10:03:42.855Z,37.80
2019-03-23T10:06:12.365Z,37.80
2019-03-23T10:08:43.426Z,37.70
2019-03-23T10:11:41.244Z,37.70
2019-03-23T10:14:11.371Z,37.60
2019-03-23T10:16:41.650Z,37.60
2019-03-23T10:19:11.673Z,37.60
2019-03-23T10:23:10.684Z,37.50
2019-03-23T10:25:40.935Z,37.50
2019-03-23T10:28:55.065Z,37.40
2019-03-23T10:31:25.202Z,37.40
2019-03-23T10:33:55.393Z,37.40
2019-03-23T10:36:25.428Z,37.30
2019-03-23T10:38:55.908Z,37.20
2019-03-23T10:41:26.106Z,37.20
2019-03-23T10:43:56.214Z,37.10
2019-03-23T10:46:26.461Z,37.00
2019-03-23T10:48:56.467Z,36.90
2019-03-23T10:51:26.516Z,36.80
2019-03-23T10:53:56.780Z,36.60
2019-03-23T10:56:26.951Z,36.50
2019-03-23T10:58:57.073Z,36.40
2019-03-23T11:01:27.285Z,36.30
2019-03-23T11:03:57.200Z,36.20
2019-03-23T11:06:27.384Z,36.00
2019-03-23T11:08:57.616Z,35.90
2019-03-23T11:11:27.940Z,35.80
2019-03-23T11:13:57.942Z,35.70
2019-03-23T11:16:28.277Z,35.60
2019-03-23T11:18:58.636Z,35.50
2019-03-23T11:21:28.614Z,35.40
2019-03-23T11:23:58.744Z,35.30
2019-03-23T11:26:28.798Z,35.30
2019-03-23T11:28:58.845Z,35.20
2019-03-23T11:31:30.960Z,35.10
2019-03-23T11:34:00.527Z,35.00
2019-03-23T11:36:30.563Z,34.90
2019-03-23T11:39:00.858Z,34.80
2019-03-23T11:41:30.948Z,34.70
2019-03-23T11:44:01.027Z,34.50
2019-03-23T11:46:31.109Z,34.50
2019-03-23T11:49:01.286Z,34.40
2019-03-23T11:51:31.385Z,34.30
2019-03-23T11:54:01.534Z,34.30
2019-03-23T11:56:31.640Z,34.20
2019-03-23T11:59:01.799Z,34.10
2019-03-23T12:01:31.741Z,34.00
2019-03-23T12:04:01.998Z,33.90
2019-03-23T12:06:32.009Z,33.90
2019-03-23T12:09:02.161Z,33.80
2019-03-23T12:11:32.295Z,33.60
2019-03-23T12:14:02.321Z,33.50
2019-03-23T12:16:32.337Z,33.40
2019-03-23T12:19:02.558Z,33.30
2019-03-23T12:21:32.652Z,33.20
2019-03-23T12:24:03.210Z,33.10
2019-03-23T12:26:33.302Z,33.00
2019-03-23T12:29:03.401Z,32.90
2019-03-23T12:31:33.624Z,32.90
2019-03-23T12:34:03.867Z,32.90
2019-03-23T12:36:34.026Z,32.80
2019-03-23T12:39:04.565Z,32.70
2019-03-23T12:41:34.784Z,32.60
2019-03-23T12:44:05.060Z,32.60
2019-03-23T12:46:35.141Z,32.50
2019-03-23T12:49:05.277Z,32.50
2019-03-23T12:51:35.598Z,32.40
2019-03-23T12:54:05.748Z,32.30
2019-03-23T12:56:36.757Z,32.30
2019-03-23T12:59:06.987Z,32.20
2019-03-23T13:01:37.007Z,32.10
2019-03-23T13:04:06.926Z,32.10
2019-03-23T13:06:37.160Z,32.00
2019-03-23T13:09:08.419Z,31.90
2019-03-23T13:11:38.613Z,31.80
2019-03-23T13:14:08.659Z,31.60
2019-03-23T13:19:08.539Z,31.40
2019-03-23T13:21:38.566Z,31.30
2019-03-23T13:24:08.592Z,31.30
2019-03-23T13:26:39.096Z,31.20
2019-03-23T13:29:09.105Z,31.30
2019-03-23T13:31:39.090Z,31.20
2019-03-23T13:34:09.695Z,31.20
2019-03-23T13:36:39.722Z,31.10
2019-03-23T13:39:10.813Z,31.00
2019-03-23T13:41:44.848Z,31.00
2019-03-23T13:44:14.936Z,30.90
2019-03-23T13:46:45.205Z,30.90
2019-03-23T13:49:15.434Z,30.90
2019-03-23T13:51:45.553Z,30.90
2019-03-23T13:54:15.644Z,30.80
2019-03-23T13:56:45.863Z,30.80
2019-03-23T13:59:16.522Z,30.80
2019-03-23T14:01:46.579Z,30.80
2019-03-23T14:04:16.771Z,30.80
2019-03-23T14:06:46.874Z,30.80
2019-03-23T14:09:16.999Z,30.80
2019-03-23T14:11:54.614Z,30.80
2019-03-23T14:14:18.599Z,30.70
2019-03-23T14:16:48.686Z,30.70
2019-03-23T14:19:18.830Z,30.70
2019-03-23T14:21:49.083Z,30.70
2019-03-23T14:24:19.005Z,30.70
2019-03-23T14:26:49.069Z,30.70
2019-03-23T14:29:19.338Z,30.70
2019-03-23T14:31:49.422Z,30.60
2019-03-23T14:34:19.675Z,30.50
2019-03-23T14:36:49.710Z,30.50
2019-03-23T14:39:19.888Z,30.50
2019-03-23T14:41:49.945Z,30.50
2019-03-23T14:44:20.274Z,30.40
2019-03-23T14:46:50.379Z,30.40
2019-03-23T14:49:20.527Z,30.40
2019-03-23T14:51:50.744Z,30.30
2019-03-23T14:54:20.814Z,30.30
2019-03-23T14:56:50.879Z,30.30
2019-03-23T14:59:20.964Z,30.20
2019-03-23T15:01:50.905Z,30.20
2019-03-23T15:04:21.098Z,30.20
2019-03-23T15:06:51.201Z,30.10
2019-03-23T15:09:21.260Z,30.10
2019-03-23T15:11:51.422Z,30.00
2019-03-23T15:14:21.679Z,30.00
2019-03-23T15:16:51.882Z,29.90
2019-03-23T15:19:22.009Z,29.90
2019-03-23T15:21:52.192Z,29.80
2019-03-23T15:24:22.324Z,29.80
2019-03-23T15:26:52.537Z,29.80
2019-03-23T15:29:22.707Z,29.80
2019-03-23T15:31:52.856Z,29.80
2019-03-23T15:34:22.807Z,29.80
2019-03-23T15:36:53.350Z,29.80
2019-03-23T15:39:23.490Z,29.70
2019-03-23T15:41:53.568Z,29.70
2019-03-23T15:44:23.741Z,29.70
2019-03-23T15:46:53.792Z,29.80
2019-03-23T15:49:23.960Z,29.90
2019-03-23T15:51:54.046Z,29.90
2019-03-23T15:54:24.086Z,30.10
2019-03-23T15:56:54.264Z,30.10
2019-03-23T15:59:24.399Z,30.20
2019-03-23T16:01:54.346Z,30.30
2019-03-23T16:04:24.697Z,30.40
2019-03-23T16:06:56.737Z,30.40
2019-03-23T16:09:26.267Z,30.50
2019-03-23T16:11:56.379Z,30.50
2019-03-23T16:14:26.473Z,30.50
2019-03-23T16:16:56.500Z,30.50
2019-03-23T16:19:26.598Z,30.50
2019-03-23T16:21:56.754Z,30.50
2019-03-23T16:24:26.896Z,30.50
2019-03-23T16:26:57.242Z,30.40
2019-03-23T16:29:27.319Z,30.40
2019-03-23T16:31:57.545Z,30.40
2019-03-23T16:34:27.554Z,30.30
2019-03-23T16:36:57.717Z,30.30
2019-03-23T16:39:27.775Z,30.30
2019-03-23T16:41:57.942Z,30.20
2019-03-23T16:44:28.086Z,30.20
2019-03-23T16:46:58.335Z,30.10
2019-03-23T16:49:28.578Z,30.10
2019-03-23T16:51:58.771Z,30.10
2019-03-23T16:54:28.926Z,30.00
2019-03-23T16:56:59.073Z,30.00
2019-03-23T16:59:29.206Z,30.00
2019-03-23T17:01:59.475Z,30.00
2019-03-23T17:04:29.560Z,30.00
2019-03-23T17:06:59.744Z,29.90
2019-03-23T17:09:29.890Z,29.90
2019-03-23T17:11:59.888Z,29.90
2019-03-23T17:14:30.301Z,29.90
2019-03-23T17:17:00.444Z,29.80
2019-03-23T17:19:30.601Z,29.80
2019-03-23T17:22:00.946Z,29.80
2019-03-23T17:24:31.077Z,29.70
2019-03-23T17:27:01.285Z,29.70
2019-03-23T17:29:31.605Z,29.60
2019-03-23T17:32:01.658Z,29.60
2019-03-23T17:34:31.879Z,29.50
2019-03-23T17:37:02.133Z,29.50
2019-03-23T17:39:32.206Z,29.50
2019-03-23T17:42:02.658Z,29.50
2019-03-23T17:44:32.890Z,29.40
2019-03-23T17:47:02.887Z,29.40
2019-03-23T17:49:32.936Z,29.40
2019-03-23T17:52:02.981Z,29.30
2019-03-23T17:54:35.447Z,29.30
2019-03-23T17:57:05.650Z,29.30
2019-03-23T17:59:35.869Z,29.30
2019-03-23T18:02:06.156Z,29.30
2019-03-23T18:04:36.210Z,29.20
2019-03-23T18:07:06.384Z,29.10
2019-03-23T18:09:37.115Z,29.10
2019-03-23T18:12:07.265Z,29.10
2019-03-23T18:14:37.161Z,29.00
2019-03-23T18:17:07.467Z,29.00
2019-03-23T18:19:37.413Z,29.00
2019-03-23T18:22:07.602Z,29.00
2019-03-23T18:24:37.715Z,29.00
2019-03-23T18:27:07.751Z,28.90
2019-03-23T18:29:37.849Z,28.90
2019-03-23T18:32:08.018Z,28.90
2019-03-23T18:34:38.235Z,28.80
2019-03-23T18:37:08.383Z,28.80
2019-03-23T18:39:38.652Z,28.80
2019-03-23T18:42:08.840Z,28.80
2019-03-23T18:44:38.916Z,28.80
2019-03-23T18:47:08.852Z,28.70
2019-03-23T18:49:39.081Z,28.70
2019-03-23T18:52:09.050Z,28.60
2019-03-23T18:54:39.132Z,28.60
2019-03-23T18:57:09.308Z,28.60
2019-03-23T18:59:39.606Z,28.50
2019-03-23T19:02:09.649Z,28.50
2019-03-23T19:04:39.742Z,28.50
2019-03-23T19:07:09.884Z,28.50
2019-03-23T19:09:39.867Z,28.50
2019-03-23T19:12:10.011Z,28.40
2019-03-23T19:14:40.302Z,28.40
2019-03-23T19:17:10.323Z,28.40
2019-03-23T19:19:40.458Z,28.40
2019-03-23T19:22:10.634Z,28.30
2019-03-23T19:24:40.845Z,28.30
2019-03-23T19:27:11.015Z,28.30
2019-03-23T19:29:41.129Z,28.20
2019-03-23T19:32:11.448Z,28.20
2019-03-23T19:34:41.466Z,28.20
2019-03-23T19:37:11.518Z,28.20
2019-03-23T19:39:41.601Z,28.20
2019-03-23T19:42:11.740Z,28.20
2019-03-23T19:44:41.787Z,28.10
2019-03-23T19:47:11.927Z,28.10
2019-03-23T19:49:42.154Z,28.10
2019-03-23T19:52:12.417Z,28.10
2019-03-23T19:54:42.420Z,28.10
2019-03-23T19:57:12.504Z,28.10
2019-03-23T19:59:42.522Z,28.10
2019-03-23T20:02:12.771Z,28.10
2019-03-23T20:04:42.738Z,28.10
2019-03-23T20:07:12.827Z,28.10
2019-03-23T20:09:42.803Z,28.10
2019-03-23T20:12:12.774Z,28.00
2019-03-23T20:14:42.939Z,28.00
2019-03-23T20:17:13.082Z,28.10
2019-03-23T20:19:43.027Z,28.10
2019-03-23T20:22:13.230Z,28.00
2019-03-23T20:24:43.684Z,28.00
2019-03-23T20:27:13.809Z,28.00
2019-03-23T20:29:43.788Z,28.00
2019-03-23T20:32:14.053Z,28.00
2019-03-23T20:34:44.134Z,28.00
2019-03-23T20:37:14.243Z,28.00
2019-03-23T20:39:44.403Z,28.00
2019-03-23T20:42:14.520Z,27.90
2019-03-23T20:44:44.575Z,28.00
2019-03-23T20:47:14.885Z,27.90
2019-03-23T20:49:45.315Z,27.90
2019-03-23T20:52:15.467Z,27.90
2019-03-23T20:54:45.535Z,27.90
2019-03-23T20:57:23.950Z,27.90
2019-03-23T20:59:48.088Z,27.90
2019-03-23T21:02:18.171Z,27.90
2019-03-23T21:04:48.269Z,27.90
2019-03-23T21:07:18.389Z,27.90
2019-03-23T21:09:48.452Z,27.80
2019-03-23T21:12:18.631Z,27.80
2019-03-23T21:14:48.763Z,27.80
2019-03-23T21:17:18.710Z,27.80
2019-03-23T21:19:48.901Z,27.80
2019-03-23T21:22:19.115Z,27.80
2019-03-23T21:24:49.324Z,27.70
2019-03-23T21:27:19.336Z,27.70
2019-03-23T21:29:49.616Z,27.70
2019-03-23T21:32:19.939Z,27.70
2019-03-23T21:34:49.977Z,27.70
2019-03-23T21:37:20.187Z,27.70
2019-03-23T21:39:50.320Z,27.70
2019-03-23T21:42:20.213Z,27.70
2019-03-23T21:44:50.410Z,27.70
2019-03-23T21:47:20.689Z,27.70
2019-03-23T21:49:50.861Z,27.60
2019-03-23T21:52:21.200Z,27.60
2019-03-23T21:54:51.250Z,27.60
2019-03-23T21:57:21.346Z,27.60
2019-03-23T21:59:51.507Z,27.60
2019-03-23T22:02:21.505Z,27.60
2019-03-23T22:04:51.648Z,27.60
2019-03-23T22:07:21.627Z,27.60
2019-03-23T22:09:51.752Z,27.60
2019-03-23T22:12:21.967Z,27.60
2019-03-23T22:14:52.001Z,27.60
2019-03-23T22:17:22.022Z,27.60
2019-03-23T22:19:52.499Z,27.60
2019-03-23T22:22:22.711Z,27.60
2019-03-23T22:24:52.970Z,27.60
2019-03-23T22:27:23.379Z,27.50
2019-03-23T22:29:53.496Z,27.50
2019-03-23T22:32:23.836Z,27.50
2019-03-23T22:34:53.829Z,27.50
2019-03-23T22:37:23.780Z,27.50
2019-03-23T22:39:54.102Z,27.50
2019-03-23T22:42:24.364Z,27.50
2019-03-23T22:44:54.417Z,27.50
2019-03-23T22:47:24.543Z,27.50
2019-03-23T22:49:54.679Z,27.50
2019-03-23T22:52:24.998Z,27.40
2019-03-23T22:54:55.354Z,27.40
2019-03-23T22:57:25.533Z,27.40
2019-03-23T22:59:55.409Z,27.40
2019-03-23T23:02:25.609Z,27.40
2019-03-23T23:04:55.769Z,27.30
2019-03-23T23:07:26.008Z,27.30
2019-03-23T23:09:55.951Z,27.30
2019-03-23T23:12:26.233Z,27.30
2019-03-23T23:15:04.710Z,27.30
2019-03-23T23:17:32.522Z,27.30
2019-03-23T23:20:02.475Z,27.30
2019-03-23T23:22:32.554Z,27.30
2019-03-23T23:25:02.828Z,27.30
2019-03-23T23:27:33.616Z,27.30
2019-03-23T23:32:33.484Z,27.40
2019-03-23T23:35:03.461Z,27.40
2019-03-23T23:37:33.707Z,27.40
2019-03-23T23:40:03.891Z,27.40
2019-03-23T23:42:33.940Z,27.40
2019-03-23T23:45:14.553Z,27.50
2019-03-23T23:47:35.454Z,27.50
2019-03-23T23:50:06.494Z,27.50
2019-03-23T23:52:36.586Z,27.60
2019-03-23T23:55:07.299Z,27.60
2019-03-23T23:57:37.426Z,27.60
